sensor_id;sensor_type;location;lat;lon;timestamp;temperature;humidity
2489;DHT22;1255;48.716;9.124;2023-07-31T00:00:11;14.80;99.90
2489;DHT22;1255;48.716;9.124;2023-07-31T00:02:38;14.80;99.90
2489;DHT22;1255;48.716;9.124;2023-07-31T00:05:05;14.80;99.90
2489;DHT22;1255;48.716;9.124;2023-07-31T00:07:32;14.80;99.90
2489;DHT22;1255;48.716;9.124;2023-07-31T00:10:00;14.70;99.90
2489;DHT22;1255;48.716;9.124;2023-07-31T00:12:28;14.80;99.90
2489;DHT22;1255;48.716;9.124;2023-07-31T00:14:54;14.80;99.90
2489;DHT22;1255;48.716;9.124;2023-07-31T00:17:21;14.70;99.90
2489;DHT22;1255;48.716;9.124;2023-07-31T00:19:48;14.70;99.90
2489;DHT22;1255;48.716;9.124;2023-07-31T00:22:16;14.70;99.90
2489;DHT22;1255;48.716;9.124;2023-07-31T00:24:42;14.70;99.90
2489;DHT22;1255;48.716;9.124;2023-07-31T00:27:10;14.70;99.90
2489;DHT22;1255;48.716;9.124;2023-07-31T00:29:37;14.60;99.90
2489;DHT22;1255;48.716;9.124;2023-07-31T00:32:05;14.60;99.90
2489;DHT22;1255;48.716;9.124;2023-07-31T00:34:32;14.50;99.90
2489;DHT22;1255;48.716;9.124;2023-07-31T00:36:58;14.50;99.90
2489;DHT22;1255;48.716;9.124;2023-07-31T00:39:25;14.50;99.90
2489;DHT22;1255;48.716;9.124;2023-07-31T00:41:52;14.50;99.90
2489;DHT22;1255;48.716;9.124;2023-07-31T00:44:20;14.50;99.90
2489;DHT22;1255;48.716;9.124;2023-07-31T00:46:47;14.50;99.90
2489;DHT22;1255;48.716;9.124;2023-07-31T00:49:14;14.50;99.90
2489;DHT22;1255;48.716;9.124;2023-07-31T00:51:42;14.40;99.90
2489;DHT22;1255;48.716;9.124;2023-07-31T00:54:09;14.40;99.90
2489;DHT22;1255;48.716;9.124;2023-07-31T00:56:36;14.50;99.90
2489;DHT22;1255;48.716;9.124;2023-07-31T00:59:04;14.50;99.90
2489;DHT22;1255;48.716;9.124;2023-07-31T01:01:32;14.50;99.90
2489;DHT22;1255;48.716;9.124;2023-07-31T01:03:59;14.50;99.90
2489;DHT22;1255;48.716;9.124;2023-07-31T01:06:33;14.40;99.90
2489;DHT22;1255;48.716;9.124;2023-07-31T01:09:05;14.40;99.90
2489;DHT22;1255;48.716;9.124;2023-07-31T01:11:38;14.40;99.90
2489;DHT22;1255;48.716;9.124;2023-07-31T01:14:07;14.40;99.90
2489;DHT22;1255;48.716;9.124;2023-07-31T01:16:35;14.50;99.90
2489;DHT22;1255;48.716;9.124;2023-07-31T01:19:02;14.50;99.90
2489;DHT22;1255;48.716;9.124;2023-07-31T01:21:40;14.50;99.90
2489;DHT22;1255;48.716;9.124;2023-07-31T01:24:23;14.50;99.90
2489;DHT22;1255;48.716;9.124;2023-07-31T01:27:04;14.50;99.90
2489;DHT22;1255;48.716;9.124;2023-07-31T01:29:37;14.50;99.90
2489;DHT22;1255;48.716;9.124;2023-07-31T01:32:06;14.50;99.90
2489;DHT22;1255;48.716;9.124;2023-07-31T01:34:35;14.50;99.90
2489;DHT22;1255;48.716;9.124;2023-07-31T01:37:02;14.50;99.90
2489;DHT22;1255;48.716;9.124;2023-07-31T01:39:29;14.50;99.90
2489;DHT22;1255;48.716;9.124;2023-07-31T01:41:57;14.50;99.90
2489;DHT22;1255;48.716;9.124;2023-07-31T01:44:23;14.50;99.90
2489;DHT22;1255;48.716;9.124;2023-07-31T01:46:50;14.50;99.90
2489;DHT22;1255;48.716;9.124;2023-07-31T01:49:17;14.50;99.90
2489;DHT22;1255;48.716;9.124;2023-07-31T01:51:43;14.50;99.90
2489;DHT22;1255;48.716;9.124;2023-07-31T01:54:10;14.50;99.90
2489;DHT22;1255;48.716;9.124;2023-07-31T01:56:37;14.50;99.90
2489;DHT22;1255;48.716;9.124;2023-07-31T01:59:05;14.50;99.90
2489;DHT22;1255;48.716;9.124;2023-07-31T02:01:32;14.40;99.90
2489;DHT22;1255;48.716;9.124;2023-07-31T02:03:59;14.40;99.90
2489;DHT22;1255;48.716;9.124;2023-07-31T02:06:25;14.40;99.90
2489;DHT22;1255;48.716;9.124;2023-07-31T02:08:52;14.30;99.90
2489;DHT22;1255;48.716;9.124;2023-07-31T02:11:19;14.20;99.90
2489;DHT22;1255;48.716;9.124;2023-07-31T02:13:45;14.20;99.90
2489;DHT22;1255;48.716;9.124;2023-07-31T02:16:13;14.20;99.90
2489;DHT22;1255;48.716;9.124;2023-07-31T02:18:40;14.20;99.90
2489;DHT22;1255;48.716;9.124;2023-07-31T02:21:07;14.10;99.90
2489;DHT22;1255;48.716;9.124;2023-07-31T02:23:34;14.10;99.90
2489;DHT22;1255;48.716;9.124;2023-07-31T02:26:00;14.10;99.90
2489;DHT22;1255;48.716;9.124;2023-07-31T02:28:27;14.10;99.90
2489;DHT22;1255;48.716;9.124;2023-07-31T02:30:54;14.10;99.90
2489;DHT22;1255;48.716;9.124;2023-07-31T02:33:22;14.10;99.90
2489;DHT22;1255;48.716;9.124;2023-07-31T02:35:48;14.00;99.90
2489;DHT22;1255;48.716;9.124;2023-07-31T02:38:15;14.00;99.90
2489;DHT22;1255;48.716;9.124;2023-07-31T02:40:42;13.90;99.90
2489;DHT22;1255;48.716;9.124;2023-07-31T02:43:08;13.90;99.90
2489;DHT22;1255;48.716;9.124;2023-07-31T02:45:35;13.90;99.90
2489;DHT22;1255;48.716;9.124;2023-07-31T02:48:02;13.90;99.90
2489;DHT22;1255;48.716;9.124;2023-07-31T02:50:31;13.90;99.90
2489;DHT22;1255;48.716;9.124;2023-07-31T02:52:58;13.90;99.90
2489;DHT22;1255;48.716;9.124;2023-07-31T02:55:25;13.90;99.90
2489;DHT22;1255;48.716;9.124;2023-07-31T02:57:52;13.90;99.90
2489;DHT22;1255;48.716;9.124;2023-07-31T03:00:19;13.90;99.90
2489;DHT22;1255;48.716;9.124;2023-07-31T03:02:45;13.90;99.90
2489;DHT22;1255;48.716;9.124;2023-07-31T03:05:12;13.90;99.90
2489;DHT22;1255;48.716;9.124;2023-07-31T03:07:40;13.90;99.90
2489;DHT22;1255;48.716;9.124;2023-07-31T03:10:08;13.90;99.90
2489;DHT22;1255;48.716;9.124;2023-07-31T03:12:35;13.90;99.90
2489;DHT22;1255;48.716;9.124;2023-07-31T03:15:02;13.80;99.90
2489;DHT22;1255;48.716;9.124;2023-07-31T03:17:28;13.80;99.90
2489;DHT22;1255;48.716;9.124;2023-07-31T03:19:55;13.80;99.90
2489;DHT22;1255;48.716;9.124;2023-07-31T03:22:22;13.90;99.90
2489;DHT22;1255;48.716;9.124;2023-07-31T03:24:50;13.80;99.90
2489;DHT22;1255;48.716;9.124;2023-07-31T03:27:17;13.90;99.90
2489;DHT22;1255;48.716;9.124;2023-07-31T03:29:54;13.90;99.90
2489;DHT22;1255;48.716;9.124;2023-07-31T03:32:20;13.80;99.90
2489;DHT22;1255;48.716;9.124;2023-07-31T03:34:47;13.90;99.90
2489;DHT22;1255;48.716;9.124;2023-07-31T03:37:14;13.90;99.90
2489;DHT22;1255;48.716;9.124;2023-07-31T03:39:41;13.90;99.90
2489;DHT22;1255;48.716;9.124;2023-07-31T03:42:09;14.00;99.90
2489;DHT22;1255;48.716;9.124;2023-07-31T03:44:36;14.00;99.90
2489;DHT22;1255;48.716;9.124;2023-07-31T03:47:03;14.10;99.90
2489;DHT22;1255;48.716;9.124;2023-07-31T03:49:33;14.10;99.90
2489;DHT22;1255;48.716;9.124;2023-07-31T03:52:00;14.10;99.90
2489;DHT22;1255;48.716;9.124;2023-07-31T03:54:27;14.10;99.90
2489;DHT22;1255;48.716;9.124;2023-07-31T03:56:53;14.10;99.90
2489;DHT22;1255;48.716;9.124;2023-07-31T03:59:22;14.00;99.90
2489;DHT22;1255;48.716;9.124;2023-07-31T04:01:48;14.00;99.90
2489;DHT22;1255;48.716;9.124;2023-07-31T04:04:15;14.00;99.90
2489;DHT22;1255;48.716;9.124;2023-07-31T04:06:42;13.90;99.90
2489;DHT22;1255;48.716;9.124;2023-07-31T04:09:08;13.90;99.90
2489;DHT22;1255;48.716;9.124;2023-07-31T04:11:35;13.90;99.90
2489;DHT22;1255;48.716;9.124;2023-07-31T04:14:02;14.00;99.90
2489;DHT22;1255;48.716;9.124;2023-07-31T04:16:30;13.90;99.90
2489;DHT22;1255;48.716;9.124;2023-07-31T04:18:56;14.00;99.90
2489;DHT22;1255;48.716;9.124;2023-07-31T04:21:23;14.00;99.90
2489;DHT22;1255;48.716;9.124;2023-07-31T04:23:50;14.10;99.90
2489;DHT22;1255;48.716;9.124;2023-07-31T04:26:16;14.10;99.90
2489;DHT22;1255;48.716;9.124;2023-07-31T04:28:43;14.10;99.90
2489;DHT22;1255;48.716;9.124;2023-07-31T04:31:10;14.20;99.90
2489;DHT22;1255;48.716;9.124;2023-07-31T04:33:38;14.20;99.90
2489;DHT22;1255;48.716;9.124;2023-07-31T04:36:05;14.30;99.90
2489;DHT22;1255;48.716;9.124;2023-07-31T04:38:31;14.30;99.90
2489;DHT22;1255;48.716;9.124;2023-07-31T04:40:58;14.40;99.90
2489;DHT22;1255;48.716;9.124;2023-07-31T04:43:25;14.40;99.90
2489;DHT22;1255;48.716;9.124;2023-07-31T04:45:51;14.50;99.90
2489;DHT22;1255;48.716;9.124;2023-07-31T04:48:19;14.50;99.90
2489;DHT22;1255;48.716;9.124;2023-07-31T04:50:47;14.50;99.90
2489;DHT22;1255;48.716;9.124;2023-07-31T04:53:14;14.60;99.90
2489;DHT22;1255;48.716;9.124;2023-07-31T04:55:40;14.70;99.90
2489;DHT22;1255;48.716;9.124;2023-07-31T04:58:07;14.80;99.90
2489;DHT22;1255;48.716;9.124;2023-07-31T05:00:34;14.90;99.90
2489;DHT22;1255;48.716;9.124;2023-07-31T05:03:01;14.90;99.90
2489;DHT22;1255;48.716;9.124;2023-07-31T05:05:27;15.00;99.90
2489;DHT22;1255;48.716;9.124;2023-07-31T05:07:55;15.00;99.90
2489;DHT22;1255;48.716;9.124;2023-07-31T05:10:22;15.10;99.90
2489;DHT22;1255;48.716;9.124;2023-07-31T05:12:49;15.10;99.90
2489;DHT22;1255;48.716;9.124;2023-07-31T05:15:16;15.10;99.90
2489;DHT22;1255;48.716;9.124;2023-07-31T05:17:42;15.10;99.90
2489;DHT22;1255;48.716;9.124;2023-07-31T05:20:09;15.20;99.90
2489;DHT22;1255;48.716;9.124;2023-07-31T05:22:36;15.20;99.90
2489;DHT22;1255;48.716;9.124;2023-07-31T05:25:05;15.20;99.90
2489;DHT22;1255;48.716;9.124;2023-07-31T05:27:32;15.20;99.90
2489;DHT22;1255;48.716;9.124;2023-07-31T05:29:59;15.20;99.90
2489;DHT22;1255;48.716;9.124;2023-07-31T05:32:26;15.20;99.90
2489;DHT22;1255;48.716;9.124;2023-07-31T05:34:52;15.20;99.90
2489;DHT22;1255;48.716;9.124;2023-07-31T05:37:19;15.30;99.90
2489;DHT22;1255;48.716;9.124;2023-07-31T05:39:46;15.30;99.90
2489;DHT22;1255;48.716;9.124;2023-07-31T05:42:14;15.40;99.90
2489;DHT22;1255;48.716;9.124;2023-07-31T05:44:41;15.40;99.90
2489;DHT22;1255;48.716;9.124;2023-07-31T05:47:07;15.50;99.90
2489;DHT22;1255;48.716;9.124;2023-07-31T05:49:34;15.50;99.90
2489;DHT22;1255;48.716;9.124;2023-07-31T05:52:01;15.60;99.90
2489;DHT22;1255;48.716;9.124;2023-07-31T05:54:27;15.70;99.90
2489;DHT22;1255;48.716;9.124;2023-07-31T05:56:54;15.80;99.90
2489;DHT22;1255;48.716;9.124;2023-07-31T05:59:22;15.90;99.90
2489;DHT22;1255;48.716;9.124;2023-07-31T06:01:49;15.90;99.90
2489;DHT22;1255;48.716;9.124;2023-07-31T06:04:15;16.00;99.90
2489;DHT22;1255;48.716;9.124;2023-07-31T06:06:42;16.00;99.90
2489;DHT22;1255;48.716;9.124;2023-07-31T06:09:09;16.10;99.90
2489;DHT22;1255;48.716;9.124;2023-07-31T06:11:36;16.20;99.90
2489;DHT22;1255;48.716;9.124;2023-07-31T06:14:02;16.30;99.90
2489;DHT22;1255;48.716;9.124;2023-07-31T06:16:30;16.40;99.90
2489;DHT22;1255;48.716;9.124;2023-07-31T06:18:57;16.40;99.90
2489;DHT22;1255;48.716;9.124;2023-07-31T06:21:24;16.40;99.90
2489;DHT22;1255;48.716;9.124;2023-07-31T06:23:51;16.50;99.90
2489;DHT22;1255;48.716;9.124;2023-07-31T06:26:18;16.60;99.90
2489;DHT22;1255;48.716;9.124;2023-07-31T06:28:44;16.60;99.90
2489;DHT22;1255;48.716;9.124;2023-07-31T06:31:11;16.70;99.90
2489;DHT22;1255;48.716;9.124;2023-07-31T06:33:40;16.70;99.90
2489;DHT22;1255;48.716;9.124;2023-07-31T06:36:06;16.80;99.90
2489;DHT22;1255;48.716;9.124;2023-07-31T06:38:33;16.90;99.90
2489;DHT22;1255;48.716;9.124;2023-07-31T06:41:00;16.80;99.90
2489;DHT22;1255;48.716;9.124;2023-07-31T06:43:26;16.90;99.90
2489;DHT22;1255;48.716;9.124;2023-07-31T06:45:53;17.00;99.90
2489;DHT22;1255;48.716;9.124;2023-07-31T06:48:19;17.10;99.90
2489;DHT22;1255;48.716;9.124;2023-07-31T06:50:48;17.20;99.90
2489;DHT22;1255;48.716;9.124;2023-07-31T06:53:14;17.30;99.90
2489;DHT22;1255;48.716;9.124;2023-07-31T06:55:41;17.40;99.90
2489;DHT22;1255;48.716;9.124;2023-07-31T06:58:08;17.50;99.90
2489;DHT22;1255;48.716;9.124;2023-07-31T07:00:34;17.60;99.90
2489;DHT22;1255;48.716;9.124;2023-07-31T07:03:01;17.70;99.90
2489;DHT22;1255;48.716;9.124;2023-07-31T07:05:28;17.80;99.90
2489;DHT22;1255;48.716;9.124;2023-07-31T07:07:56;17.80;99.90
2489;DHT22;1255;48.716;9.124;2023-07-31T07:10:22;17.90;99.90
2489;DHT22;1255;48.716;9.124;2023-07-31T07:12:49;18.00;99.90
2489;DHT22;1255;48.716;9.124;2023-07-31T07:15:16;18.10;99.90
2489;DHT22;1255;48.716;9.124;2023-07-31T07:17:43;18.10;99.90
2489;DHT22;1255;48.716;9.124;2023-07-31T07:20:09;18.10;99.90
2489;DHT22;1255;48.716;9.124;2023-07-31T07:22:36;18.20;99.90
2489;DHT22;1255;48.716;9.124;2023-07-31T07:25:05;18.20;99.90
2489;DHT22;1255;48.716;9.124;2023-07-31T07:27:32;18.30;99.90
2489;DHT22;1255;48.716;9.124;2023-07-31T07:29:59;18.30;99.90
2489;DHT22;1255;48.716;9.124;2023-07-31T07:32:26;18.30;99.90
2489;DHT22;1255;48.716;9.124;2023-07-31T07:34:53;18.20;99.90
2489;DHT22;1255;48.716;9.124;2023-07-31T07:37:19;18.10;99.90
2489;DHT22;1255;48.716;9.124;2023-07-31T07:39:46;18.00;99.90
2489;DHT22;1255;48.716;9.124;2023-07-31T07:42:14;17.90;99.90
2489;DHT22;1255;48.716;9.124;2023-07-31T07:44:41;17.80;99.90
2489;DHT22;1255;48.716;9.124;2023-07-31T07:47:08;18.00;99.90
2489;DHT22;1255;48.716;9.124;2023-07-31T07:49:35;18.00;99.90
2489;DHT22;1255;48.716;9.124;2023-07-31T07:52:02;18.20;99.90
2489;DHT22;1255;48.716;9.124;2023-07-31T07:54:30;18.30;99.90
2489;DHT22;1255;48.716;9.124;2023-07-31T07:56:57;18.30;99.90
2489;DHT22;1255;48.716;9.124;2023-07-31T07:59:25;18.40;99.90
2489;DHT22;1255;48.716;9.124;2023-07-31T08:01:51;18.50;99.90
2489;DHT22;1255;48.716;9.124;2023-07-31T08:04:18;18.70;99.90
2489;DHT22;1255;48.716;9.124;2023-07-31T08:06:45;18.80;99.90
2489;DHT22;1255;48.716;9.124;2023-07-31T08:09:12;18.80;99.90
2489;DHT22;1255;48.716;9.124;2023-07-31T08:11:38;18.80;99.90
2489;DHT22;1255;48.716;9.124;2023-07-31T08:14:05;18.90;99.90
2489;DHT22;1255;48.716;9.124;2023-07-31T08:16:33;18.90;99.90
2489;DHT22;1255;48.716;9.124;2023-07-31T08:19:00;19.00;99.90
2489;DHT22;1255;48.716;9.124;2023-07-31T08:21:27;19.10;99.90
2489;DHT22;1255;48.716;9.124;2023-07-31T08:23:53;19.20;99.90
2489;DHT22;1255;48.716;9.124;2023-07-31T08:26:20;19.20;99.90
2489;DHT22;1255;48.716;9.124;2023-07-31T08:28:47;19.10;99.90
2489;DHT22;1255;48.716;9.124;2023-07-31T08:31:14;19.20;99.90
2489;DHT22;1255;48.716;9.124;2023-07-31T08:33:42;19.30;99.90
2489;DHT22;1255;48.716;9.124;2023-07-31T08:36:08;19.40;99.90
2489;DHT22;1255;48.716;9.124;2023-07-31T08:38:35;19.30;99.90
2489;DHT22;1255;48.716;9.124;2023-07-31T08:41:03;19.40;99.90
2489;DHT22;1255;48.716;9.124;2023-07-31T08:43:30;19.40;99.90
2489;DHT22;1255;48.716;9.124;2023-07-31T08:45:57;19.40;99.90
2489;DHT22;1255;48.716;9.124;2023-07-31T08:48:24;19.50;99.90
2489;DHT22;1255;48.716;9.124;2023-07-31T08:50:53;19.60;99.90
2489;DHT22;1255;48.716;9.124;2023-07-31T08:53:20;19.70;99.90
2489;DHT22;1255;48.716;9.124;2023-07-31T08:55:48;19.80;99.90
2489;DHT22;1255;48.716;9.124;2023-07-31T08:58:17;19.90;99.90
2489;DHT22;1255;48.716;9.124;2023-07-31T09:00:46;20.00;99.90
2489;DHT22;1255;48.716;9.124;2023-07-31T09:03:14;20.00;99.90
2489;DHT22;1255;48.716;9.124;2023-07-31T09:05:43;20.00;99.90
2489;DHT22;1255;48.716;9.124;2023-07-31T09:08:13;20.10;99.90
2489;DHT22;1255;48.716;9.124;2023-07-31T09:10:41;20.20;99.90
2489;DHT22;1255;48.716;9.124;2023-07-31T09:13:08;20.40;99.90
2489;DHT22;1255;48.716;9.124;2023-07-31T09:15:36;20.50;99.90
2489;DHT22;1255;48.716;9.124;2023-07-31T09:18:03;20.60;99.90
2489;DHT22;1255;48.716;9.124;2023-07-31T09:20:31;20.50;99.90
2489;DHT22;1255;48.716;9.124;2023-07-31T09:23:05;20.50;99.90
2489;DHT22;1255;48.716;9.124;2023-07-31T09:25:35;20.50;99.90
2489;DHT22;1255;48.716;9.124;2023-07-31T09:28:03;20.40;99.90
2489;DHT22;1255;48.716;9.124;2023-07-31T09:30:31;20.30;99.90
2489;DHT22;1255;48.716;9.124;2023-07-31T09:33:02;20.10;99.90
2489;DHT22;1255;48.716;9.124;2023-07-31T09:35:30;20.00;99.90
2489;DHT22;1255;48.716;9.124;2023-07-31T09:37:58;19.90;99.90
2489;DHT22;1255;48.716;9.124;2023-07-31T09:40:30;19.90;99.90
2489;DHT22;1255;48.716;9.124;2023-07-31T09:43:00;19.80;99.90
2489;DHT22;1255;48.716;9.124;2023-07-31T09:45:27;19.70;99.90
2489;DHT22;1255;48.716;9.124;2023-07-31T09:47:54;19.60;99.90
2489;DHT22;1255;48.716;9.124;2023-07-31T09:50:22;19.60;99.90
2489;DHT22;1255;48.716;9.124;2023-07-31T09:52:50;19.70;99.90
2489;DHT22;1255;48.716;9.124;2023-07-31T09:55:18;19.90;99.90
2489;DHT22;1255;48.716;9.124;2023-07-31T09:57:47;20.00;99.90
2489;DHT22;1255;48.716;9.124;2023-07-31T10:00:17;20.10;99.90
2489;DHT22;1255;48.716;9.124;2023-07-31T10:02:45;20.30;99.90
2489;DHT22;1255;48.716;9.124;2023-07-31T10:05:14;20.40;99.90
2489;DHT22;1255;48.716;9.124;2023-07-31T10:07:43;20.40;99.90
2489;DHT22;1255;48.716;9.124;2023-07-31T10:10:13;20.50;99.90
2489;DHT22;1255;48.716;9.124;2023-07-31T10:12:41;20.60;99.90
2489;DHT22;1255;48.716;9.124;2023-07-31T10:15:09;20.80;99.90
2489;DHT22;1255;48.716;9.124;2023-07-31T10:17:38;21.00;99.90
2489;DHT22;1255;48.716;9.124;2023-07-31T10:20:07;21.20;99.90
2489;DHT22;1255;48.716;9.124;2023-07-31T10:22:34;21.30;99.90
2489;DHT22;1255;48.716;9.124;2023-07-31T10:25:02;21.30;99.90
2489;DHT22;1255;48.716;9.124;2023-07-31T10:27:29;21.30;99.90
2489;DHT22;1255;48.716;9.124;2023-07-31T10:29:57;21.30;99.90
2489;DHT22;1255;48.716;9.124;2023-07-31T10:32:25;21.40;99.90
2489;DHT22;1255;48.716;9.124;2023-07-31T10:34:55;21.30;99.90
2489;DHT22;1255;48.716;9.124;2023-07-31T10:37:24;21.40;99.90
2489;DHT22;1255;48.716;9.124;2023-07-31T10:39:57;21.40;99.90
2489;DHT22;1255;48.716;9.124;2023-07-31T10:42:29;21.30;99.90
2489;DHT22;1255;48.716;9.124;2023-07-31T10:45:01;21.30;99.90
2489;DHT22;1255;48.716;9.124;2023-07-31T10:47:29;21.40;99.90
2489;DHT22;1255;48.716;9.124;2023-07-31T10:50:17;21.60;99.90
2489;DHT22;1255;48.716;9.124;2023-07-31T10:52:47;21.80;99.90
2489;DHT22;1255;48.716;9.124;2023-07-31T10:55:30;21.80;99.90
2489;DHT22;1255;48.716;9.124;2023-07-31T10:58:05;21.90;99.90
2489;DHT22;1255;48.716;9.124;2023-07-31T11:00:33;21.90;99.90
2489;DHT22;1255;48.716;9.124;2023-07-31T11:03:02;21.90;99.90
2489;DHT22;1255;48.716;9.124;2023-07-31T11:05:51;21.90;99.90
2489;DHT22;1255;48.716;9.124;2023-07-31T11:08:21;21.70;99.90
2489;DHT22;1255;48.716;9.124;2023-07-31T11:10:50;21.60;99.90
2489;DHT22;1255;48.716;9.124;2023-07-31T11:13:17;21.50;99.90
2489;DHT22;1255;48.716;9.124;2023-07-31T11:15:45;21.40;99.90
2489;DHT22;1255;48.716;9.124;2023-07-31T11:18:12;21.40;99.90
2489;DHT22;1255;48.716;9.124;2023-07-31T11:20:39;21.40;99.90
2489;DHT22;1255;48.716;9.124;2023-07-31T11:23:09;21.40;99.90
2489;DHT22;1255;48.716;9.124;2023-07-31T11:25:37;21.30;99.90
2489;DHT22;1255;48.716;9.124;2023-07-31T11:28:07;21.10;99.90
2489;DHT22;1255;48.716;9.124;2023-07-31T11:30:34;21.00;99.90
2489;DHT22;1255;48.716;9.124;2023-07-31T11:33:02;21.00;99.90
2489;DHT22;1255;48.716;9.124;2023-07-31T11:35:30;20.90;99.90
2489;DHT22;1255;48.716;9.124;2023-07-31T11:37:57;21.00;99.90
2489;DHT22;1255;48.716;9.124;2023-07-31T11:40:25;20.90;99.90
2489;DHT22;1255;48.716;9.124;2023-07-31T11:42:55;21.00;99.90
2489;DHT22;1255;48.716;9.124;2023-07-31T11:45:24;20.90;99.90
2489;DHT22;1255;48.716;9.124;2023-07-31T11:47:51;21.00;99.90
2489;DHT22;1255;48.716;9.124;2023-07-31T11:50:18;21.00;99.90
2489;DHT22;1255;48.716;9.124;2023-07-31T11:52:46;21.00;99.90
2489;DHT22;1255;48.716;9.124;2023-07-31T11:55:15;21.00;99.90
2489;DHT22;1255;48.716;9.124;2023-07-31T11:57:45;20.90;99.90
2489;DHT22;1255;48.716;9.124;2023-07-31T12:00:14;21.00;99.90
2489;DHT22;1255;48.716;9.124;2023-07-31T12:02:41;21.00;99.90
2489;DHT22;1255;48.716;9.124;2023-07-31T12:05:11;20.90;99.90
2489;DHT22;1255;48.716;9.124;2023-07-31T12:07:44;20.90;99.90
2489;DHT22;1255;48.716;9.124;2023-07-31T12:10:21;20.90;99.90
2489;DHT22;1255;48.716;9.124;2023-07-31T12:13:00;20.90;99.90
2489;DHT22;1255;48.716;9.124;2023-07-31T12:15:42;20.80;99.90
2489;DHT22;1255;48.716;9.124;2023-07-31T12:18:11;20.80;99.90
2489;DHT22;1255;48.716;9.124;2023-07-31T12:20:42;20.80;99.90
2489;DHT22;1255;48.716;9.124;2023-07-31T12:23:20;20.80;99.90
2489;DHT22;1255;48.716;9.124;2023-07-31T12:26:00;20.80;99.90
2489;DHT22;1255;48.716;9.124;2023-07-31T12:28:29;20.80;99.90
2489;DHT22;1255;48.716;9.124;2023-07-31T12:30:58;20.80;99.90
2489;DHT22;1255;48.716;9.124;2023-07-31T12:33:30;20.80;99.90
2489;DHT22;1255;48.716;9.124;2023-07-31T12:35:59;20.80;99.90
2489;DHT22;1255;48.716;9.124;2023-07-31T12:38:27;20.80;99.90
2489;DHT22;1255;48.716;9.124;2023-07-31T12:40:54;20.80;99.90
2489;DHT22;1255;48.716;9.124;2023-07-31T12:43:23;20.80;99.90
2489;DHT22;1255;48.716;9.124;2023-07-31T12:45:53;20.70;99.90
2489;DHT22;1255;48.716;9.124;2023-07-31T12:48:20;20.70;99.90
2489;DHT22;1255;48.716;9.124;2023-07-31T12:50:47;20.80;99.90
2489;DHT22;1255;48.716;9.124;2023-07-31T12:53:15;20.70;99.90
2489;DHT22;1255;48.716;9.124;2023-07-31T12:55:42;20.80;99.90
2489;DHT22;1255;48.716;9.124;2023-07-31T12:58:09;20.90;99.90
2489;DHT22;1255;48.716;9.124;2023-07-31T13:00:36;21.00;99.90
2489;DHT22;1255;48.716;9.124;2023-07-31T13:03:07;21.20;99.90
2489;DHT22;1255;48.716;9.124;2023-07-31T13:05:34;21.40;99.90
2489;DHT22;1255;48.716;9.124;2023-07-31T13:08:02;21.60;99.90
2489;DHT22;1255;48.716;9.124;2023-07-31T13:10:30;21.70;99.90
2489;DHT22;1255;48.716;9.124;2023-07-31T13:12:57;21.80;99.90
2489;DHT22;1255;48.716;9.124;2023-07-31T13:15:27;22.00;99.90
2489;DHT22;1255;48.716;9.124;2023-07-31T13:17:54;22.10;99.90
2489;DHT22;1255;48.716;9.124;2023-07-31T13:20:22;22.10;99.90
2489;DHT22;1255;48.716;9.124;2023-07-31T13:22:49;22.20;99.90
2489;DHT22;1255;48.716;9.124;2023-07-31T13:25:18;22.20;99.90
2489;DHT22;1255;48.716;9.124;2023-07-31T13:27:45;22.10;99.90
2489;DHT22;1255;48.716;9.124;2023-07-31T13:30:12;22.10;99.90
2489;DHT22;1255;48.716;9.124;2023-07-31T13:32:39;22.10;99.90
2489;DHT22;1255;48.716;9.124;2023-07-31T13:35:07;22.10;99.90
2489;DHT22;1255;48.716;9.124;2023-07-31T13:37:36;22.10;99.90
2489;DHT22;1255;48.716;9.124;2023-07-31T13:40:03;22.00;99.90
2489;DHT22;1255;48.716;9.124;2023-07-31T13:42:31;22.00;99.90
2489;DHT22;1255;48.716;9.124;2023-07-31T13:44:58;21.90;99.90
2489;DHT22;1255;48.716;9.124;2023-07-31T13:47:25;22.00;99.90
2489;DHT22;1255;48.716;9.124;2023-07-31T13:49:52;22.00;99.90
2489;DHT22;1255;48.716;9.124;2023-07-31T13:52:19;22.00;99.90
2489;DHT22;1255;48.716;9.124;2023-07-31T13:54:47;22.00;99.90
2489;DHT22;1255;48.716;9.124;2023-07-31T13:57:14;22.00;99.90
2489;DHT22;1255;48.716;9.124;2023-07-31T13:59:41;21.90;99.90
2489;DHT22;1255;48.716;9.124;2023-07-31T14:02:08;22.00;99.90
2489;DHT22;1255;48.716;9.124;2023-07-31T14:04:35;22.00;99.90
2489;DHT22;1255;48.716;9.124;2023-07-31T14:07:02;21.90;99.90
2489;DHT22;1255;48.716;9.124;2023-07-31T14:09:30;21.90;99.90
2489;DHT22;1255;48.716;9.124;2023-07-31T14:11:58;21.90;99.90
2489;DHT22;1255;48.716;9.124;2023-07-31T14:14:25;21.90;99.90
2489;DHT22;1255;48.716;9.124;2023-07-31T14:16:51;21.80;99.90
2489;DHT22;1255;48.716;9.124;2023-07-31T14:19:18;21.70;99.90
2489;DHT22;1255;48.716;9.124;2023-07-31T14:21:45;21.70;99.90
2489;DHT22;1255;48.716;9.124;2023-07-31T14:24:12;21.70;99.90
2489;DHT22;1255;48.716;9.124;2023-07-31T14:26:39;21.70;99.90
2489;DHT22;1255;48.716;9.124;2023-07-31T14:29:07;21.70;99.90
2489;DHT22;1255;48.716;9.124;2023-07-31T14:31:34;21.60;99.90
2489;DHT22;1255;48.716;9.124;2023-07-31T14:34:01;21.60;99.90
2489;DHT22;1255;48.716;9.124;2023-07-31T14:36:28;21.70;99.90
2489;DHT22;1255;48.716;9.124;2023-07-31T14:38:55;21.70;99.90
2489;DHT22;1255;48.716;9.124;2023-07-31T14:41:22;21.70;99.90
2489;DHT22;1255;48.716;9.124;2023-07-31T14:43:48;21.60;99.90
2489;DHT22;1255;48.716;9.124;2023-07-31T14:46:17;21.60;99.90
2489;DHT22;1255;48.716;9.124;2023-07-31T14:48:43;21.70;99.90
2489;DHT22;1255;48.716;9.124;2023-07-31T14:51:11;21.80;99.90
2489;DHT22;1255;48.716;9.124;2023-07-31T14:53:37;22.00;99.90
2489;DHT22;1255;48.716;9.124;2023-07-31T14:56:04;22.00;99.90
2489;DHT22;1255;48.716;9.124;2023-07-31T14:58:31;22.10;99.90
2489;DHT22;1255;48.716;9.124;2023-07-31T15:00:58;22.20;99.90
2489;DHT22;1255;48.716;9.124;2023-07-31T15:03:26;22.20;99.90
2489;DHT22;1255;48.716;9.124;2023-07-31T15:05:53;22.10;99.90
2489;DHT22;1255;48.716;9.124;2023-07-31T15:08:20;22.20;99.90
2489;DHT22;1255;48.716;9.124;2023-07-31T15:10:47;22.20;99.90
2489;DHT22;1255;48.716;9.124;2023-07-31T15:13:14;22.20;99.90
2489;DHT22;1255;48.716;9.124;2023-07-31T15:15:41;22.20;99.90
2489;DHT22;1255;48.716;9.124;2023-07-31T15:18:08;22.20;99.90
2489;DHT22;1255;48.716;9.124;2023-07-31T15:20:36;22.20;99.90
2489;DHT22;1255;48.716;9.124;2023-07-31T15:23:02;22.20;99.90
2489;DHT22;1255;48.716;9.124;2023-07-31T15:25:29;22.30;99.90
2489;DHT22;1255;48.716;9.124;2023-07-31T15:27:56;22.30;99.90
2489;DHT22;1255;48.716;9.124;2023-07-31T15:30:24;22.30;99.90
2489;DHT22;1255;48.716;9.124;2023-07-31T15:32:52;22.30;99.90
2489;DHT22;1255;48.716;9.124;2023-07-31T15:35:19;22.50;99.90
2489;DHT22;1255;48.716;9.124;2023-07-31T15:37:47;22.60;99.90
2489;DHT22;1255;48.716;9.124;2023-07-31T15:40:14;22.70;99.90
2489;DHT22;1255;48.716;9.124;2023-07-31T15:42:41;22.70;99.90
2489;DHT22;1255;48.716;9.124;2023-07-31T15:45:08;22.70;99.90
2489;DHT22;1255;48.716;9.124;2023-07-31T15:47:35;22.70;99.90
2489;DHT22;1255;48.716;9.124;2023-07-31T15:50:03;22.70;99.90
2489;DHT22;1255;48.716;9.124;2023-07-31T15:52:30;22.70;99.90
2489;DHT22;1255;48.716;9.124;2023-07-31T15:54:58;22.70;99.90
2489;DHT22;1255;48.716;9.124;2023-07-31T15:57:25;22.70;99.90
2489;DHT22;1255;48.716;9.124;2023-07-31T15:59:51;22.70;99.90
2489;DHT22;1255;48.716;9.124;2023-07-31T16:02:18;22.70;99.90
2489;DHT22;1255;48.716;9.124;2023-07-31T16:04:45;22.80;99.90